sensor_id;sensor_type;location;lat;lon;timestamp;P1;durP1;ratioP1;P2;durP2;ratioP2
68365;SDS011;55283;51.466;5.478;2022-10-13T00:00:37;5.60;;;3.60;;
68365;SDS011;55283;51.466;5.478;2022-10-13T00:03:04;5.18;;;3.50;;
68365;SDS011;55283;51.466;5.478;2022-10-13T00:05:30;5.63;;;3.50;;
68365;SDS011;55283;51.466;5.478;2022-10-13T00:07:55;5.63;;;3.97;;
68365;SDS011;55283;51.466;5.478;2022-10-13T00:10:22;4.60;;;3.38;;
68365;SDS011;55283;51.466;5.478;2022-10-13T00:12:48;6.55;;;3.83;;
68365;SDS011;55283;51.466;5.478;2022-10-13T00:15:14;4.50;;;3.15;;
68365;SDS011;55283;51.466;5.478;2022-10-13T00:17:40;4.30;;;3.30;;
68365;SDS011;55283;51.466;5.478;2022-10-13T00:20:06;5.30;;;3.43;;
68365;SDS011;55283;51.466;5.478;2022-10-13T00:22:32;5.00;;;3.42;;
68365;SDS011;55283;51.466;5.478;2022-10-13T00:24:58;5.83;;;3.73;;
68365;SDS011;55283;51.466;5.478;2022-10-13T00:27:23;6.13;;;3.63;;
68365;SDS011;55283;51.466;5.478;2022-10-13T00:29:48;5.33;;;3.80;;
68365;SDS011;55283;51.466;5.478;2022-10-13T00:32:14;4.77;;;3.47;;
68365;SDS011;55283;51.466;5.478;2022-10-13T00:34:39;4.57;;;3.47;;
68365;SDS011;55283;51.466;5.478;2022-10-13T00:37:04;5.33;;;3.53;;
68365;SDS011;55283;51.466;5.478;2022-10-13T00:39:30;4.60;;;3.22;;
68365;SDS011;55283;51.466;5.478;2022-10-13T00:41:57;6.00;;;3.40;;
68365;SDS011;55283;51.466;5.478;2022-10-13T00:47:37;4.15;;;3.33;;
68365;SDS011;55283;51.466;5.478;2022-10-13T00:50:06;5.37;;;3.83;;
68365;SDS011;55283;51.466;5.478;2022-10-13T00:52:38;4.13;;;3.15;;
68365;SDS011;55283;51.466;5.478;2022-10-13T00:55:05;4.95;;;3.30;;
68365;SDS011;55283;51.466;5.478;2022-10-13T00:57:33;5.15;;;3.30;;
68365;SDS011;55283;51.466;5.478;2022-10-13T01:00:00;4.50;;;3.23;;
68365;SDS011;55283;51.466;5.478;2022-10-13T01:02:28;4.47;;;3.53;;
68365;SDS011;55283;51.466;5.478;2022-10-13T01:04:56;5.15;;;3.40;;
68365;SDS011;55283;51.466;5.478;2022-10-13T01:07:23;4.87;;;3.33;;
68365;SDS011;55283;51.466;5.478;2022-10-13T01:09:49;4.80;;;3.42;;
68365;SDS011;55283;51.466;5.478;2022-10-13T01:15:33;4.97;;;3.30;;
68365;SDS011;55283;51.466;5.478;2022-10-13T01:23:23;5.63;;;3.50;;
68365;SDS011;55283;51.466;5.478;2022-10-13T01:29:12;4.55;;;3.30;;
68365;SDS011;55283;51.466;5.478;2022-10-13T01:34:45;4.60;;;3.55;;
68365;SDS011;55283;51.466;5.478;2022-10-13T01:37:19;5.40;;;3.42;;
68365;SDS011;55283;51.466;5.478;2022-10-13T01:40:00;5.73;;;3.40;;
68365;SDS011;55283;51.466;5.478;2022-10-13T01:43:03;5.18;;;3.40;;
68365;SDS011;55283;51.466;5.478;2022-10-13T01:45:31;6.28;;;3.30;;
68365;SDS011;55283;51.466;5.478;2022-10-13T01:48:02;4.50;;;3.17;;
68365;SDS011;55283;51.466;5.478;2022-10-13T01:50:29;5.53;;;3.33;;
68365;SDS011;55283;51.466;5.478;2022-10-13T01:52:58;4.63;;;3.40;;
68365;SDS011;55283;51.466;5.478;2022-10-13T01:55:27;4.85;;;3.20;;
68365;SDS011;55283;51.466;5.478;2022-10-13T01:57:53;4.77;;;3.40;;
68365;SDS011;55283;51.466;5.478;2022-10-13T02:00:20;5.65;;;3.22;;
68365;SDS011;55283;51.466;5.478;2022-10-13T02:02:50;5.35;;;3.13;;
68365;SDS011;55283;51.466;5.478;2022-10-13T02:10:50;6.22;;;3.78;;
68365;SDS011;55283;51.466;5.478;2022-10-13T02:13:23;4.10;;;2.92;;
68365;SDS011;55283;51.466;5.478;2022-10-13T02:15:52;3.70;;;3.13;;
68365;SDS011;55283;51.466;5.478;2022-10-13T02:18:21;4.45;;;3.20;;
68365;SDS011;55283;51.466;5.478;2022-10-13T02:20:51;4.63;;;3.22;;
68365;SDS011;55283;51.466;5.478;2022-10-13T02:23:19;4.37;;;3.33;;
68365;SDS011;55283;51.466;5.478;2022-10-13T02:25:44;4.18;;;3.10;;
68365;SDS011;55283;51.466;5.478;2022-10-13T02:28:12;4.38;;;3.17;;
68365;SDS011;55283;51.466;5.478;2022-10-13T02:30:39;4.57;;;3.20;;
68365;SDS011;55283;51.466;5.478;2022-10-13T02:33:05;7.70;;;3.30;;
68365;SDS011;55283;51.466;5.478;2022-10-13T02:35:31;4.85;;;3.10;;
68365;SDS011;55283;51.466;5.478;2022-10-13T02:37:57;4.35;;;2.90;;
68365;SDS011;55283;51.466;5.478;2022-10-13T02:40:23;5.00;;;3.23;;
68365;SDS011;55283;51.466;5.478;2022-10-13T02:42:49;5.13;;;3.58;;
68365;SDS011;55283;51.466;5.478;2022-10-13T02:45:15;4.40;;;3.27;;
68365;SDS011;55283;51.466;5.478;2022-10-13T02:47:40;4.17;;;3.40;;
68365;SDS011;55283;51.466;5.478;2022-10-13T02:50:06;4.77;;;3.10;;
68365;SDS011;55283;51.466;5.478;2022-10-13T02:52:32;4.17;;;3.30;;
68365;SDS011;55283;51.466;5.478;2022-10-13T02:54:57;4.55;;;3.30;;
68365;SDS011;55283;51.466;5.478;2022-10-13T02:57:22;4.30;;;3.07;;
68365;SDS011;55283;51.466;5.478;2022-10-13T02:59:48;4.73;;;3.07;;
68365;SDS011;55283;51.466;5.478;2022-10-13T03:02:13;4.97;;;2.90;;
68365;SDS011;55283;51.466;5.478;2022-10-13T03:04:39;4.63;;;3.00;;
68365;SDS011;55283;51.466;5.478;2022-10-13T03:07:05;4.63;;;2.93;;
68365;SDS011;55283;51.466;5.478;2022-10-13T03:09:31;3.63;;;2.80;;
68365;SDS011;55283;51.466;5.478;2022-10-13T03:11:56;4.10;;;3.00;;
68365;SDS011;55283;51.466;5.478;2022-10-13T03:14:22;4.20;;;3.20;;
68365;SDS011;55283;51.466;5.478;2022-10-13T03:16:48;5.00;;;3.20;;
68365;SDS011;55283;51.466;5.478;2022-10-13T03:19:13;4.17;;;3.10;;
68365;SDS011;55283;51.466;5.478;2022-10-13T03:21:39;4.43;;;3.00;;
68365;SDS011;55283;51.466;5.478;2022-10-13T03:24:04;5.07;;;3.17;;
68365;SDS011;55283;51.466;5.478;2022-10-13T03:26:30;3.60;;;3.00;;
68365;SDS011;55283;51.466;5.478;2022-10-13T03:28:56;3.70;;;2.80;;
68365;SDS011;55283;51.466;5.478;2022-10-13T03:31:22;3.70;;;3.10;;
68365;SDS011;55283;51.466;5.478;2022-10-13T03:33:49;4.30;;;2.78;;
68365;SDS011;55283;51.466;5.478;2022-10-13T03:36:15;3.73;;;3.00;;
68365;SDS011;55283;51.466;5.478;2022-10-13T03:38:41;4.10;;;3.00;;
68365;SDS011;55283;51.466;5.478;2022-10-13T03:41:13;4.20;;;2.97;;
68365;SDS011;55283;51.466;5.478;2022-10-13T03:43:41;3.40;;;3.10;;
68365;SDS011;55283;51.466;5.478;2022-10-13T03:46:09;3.03;;;2.70;;
68365;SDS011;55283;51.466;5.478;2022-10-13T03:48:36;5.13;;;3.27;;
68365;SDS011;55283;51.466;5.478;2022-10-13T03:51:05;4.38;;;3.20;;
68365;SDS011;55283;51.466;5.478;2022-10-13T03:53:39;4.68;;;3.20;;
68365;SDS011;55283;51.466;5.478;2022-10-13T03:56:04;4.20;;;2.90;;
68365;SDS011;55283;51.466;5.478;2022-10-13T03:58:31;3.57;;;2.97;;
68365;SDS011;55283;51.466;5.478;2022-10-13T04:01:01;4.05;;;3.00;;
68365;SDS011;55283;51.466;5.478;2022-10-13T04:03:29;3.97;;;3.03;;
68365;SDS011;55283;51.466;5.478;2022-10-13T04:05:57;3.83;;;3.00;;
68365;SDS011;55283;51.466;5.478;2022-10-13T04:08:24;3.80;;;2.88;;
68365;SDS011;55283;51.466;5.478;2022-10-13T04:10:56;4.63;;;3.03;;
68365;SDS011;55283;51.466;5.478;2022-10-13T04:13:25;4.25;;;2.95;;
68365;SDS011;55283;51.466;5.478;2022-10-13T04:15:51;4.40;;;3.00;;
68365;SDS011;55283;51.466;5.478;2022-10-13T04:18:16;4.37;;;2.77;;
68365;SDS011;55283;51.466;5.478;2022-10-13T04:20:41;3.65;;;3.03;;
68365;SDS011;55283;51.466;5.478;2022-10-13T04:23:07;5.03;;;2.80;;
68365;SDS011;55283;51.466;5.478;2022-10-13T04:25:36;3.63;;;3.00;;
68365;SDS011;55283;51.466;5.478;2022-10-13T04:28:05;3.65;;;2.65;;
68365;SDS011;55283;51.466;5.478;2022-10-13T04:30:34;4.57;;;3.20;;
68365;SDS011;55283;51.466;5.478;2022-10-13T04:33:00;4.10;;;2.80;;
68365;SDS011;55283;51.466;5.478;2022-10-13T04:35:25;4.38;;;2.83;;
68365;SDS011;55283;51.466;5.478;2022-10-13T04:37:51;5.17;;;3.00;;
68365;SDS011;55283;51.466;5.478;2022-10-13T04:40:16;4.27;;;2.90;;
68365;SDS011;55283;51.466;5.478;2022-10-13T04:42:42;3.97;;;2.70;;
68365;SDS011;55283;51.466;5.478;2022-10-13T04:45:08;3.40;;;2.90;;
68365;SDS011;55283;51.466;5.478;2022-10-13T04:47:34;4.43;;;2.92;;
68365;SDS011;55283;51.466;5.478;2022-10-13T04:50:00;4.80;;;2.85;;
68365;SDS011;55283;51.466;5.478;2022-10-13T04:52:26;3.33;;;2.67;;
68365;SDS011;55283;51.466;5.478;2022-10-13T04:54:51;3.60;;;2.77;;
68365;SDS011;55283;51.466;5.478;2022-10-13T04:57:16;4.13;;;3.10;;
68365;SDS011;55283;51.466;5.478;2022-10-13T04:59:42;4.57;;;2.80;;
68365;SDS011;55283;51.466;5.478;2022-10-13T05:02:07;4.63;;;3.00;;
68365;SDS011;55283;51.466;5.478;2022-10-13T05:04:34;4.83;;;2.70;;
68365;SDS011;55283;51.466;5.478;2022-10-13T05:07:00;3.80;;;3.30;;
68365;SDS011;55283;51.466;5.478;2022-10-13T05:09:25;3.93;;;3.13;;
68365;SDS011;55283;51.466;5.478;2022-10-13T05:11:51;4.40;;;2.95;;
68365;SDS011;55283;51.466;5.478;2022-10-13T05:14:19;4.60;;;2.80;;
68365;SDS011;55283;51.466;5.478;2022-10-13T05:16:45;3.47;;;2.58;;
68365;SDS011;55283;51.466;5.478;2022-10-13T05:19:10;4.43;;;3.10;;
68365;SDS011;55283;51.466;5.478;2022-10-13T05:21:36;3.50;;;2.70;;
68365;SDS011;55283;51.466;5.478;2022-10-13T05:24:01;3.22;;;2.70;;
68365;SDS011;55283;51.466;5.478;2022-10-13T05:26:29;4.03;;;2.80;;
68365;SDS011;55283;51.466;5.478;2022-10-13T05:28:59;3.60;;;2.50;;
68365;SDS011;55283;51.466;5.478;2022-10-13T05:31:26;4.40;;;3.05;;
68365;SDS011;55283;51.466;5.478;2022-10-13T05:33:52;3.17;;;2.70;;
68365;SDS011;55283;51.466;5.478;2022-10-13T05:36:19;3.50;;;2.75;;
68365;SDS011;55283;51.466;5.478;2022-10-13T05:38:50;4.13;;;2.70;;
68365;SDS011;55283;51.466;5.478;2022-10-13T05:41:17;3.83;;;2.65;;
68365;SDS011;55283;51.466;5.478;2022-10-13T05:43:43;4.87;;;3.20;;
68365;SDS011;55283;51.466;5.478;2022-10-13T05:46:08;5.20;;;3.00;;
68365;SDS011;55283;51.466;5.478;2022-10-13T05:48:34;3.80;;;2.90;;
68365;SDS011;55283;51.466;5.478;2022-10-13T05:51:02;3.33;;;2.77;;
68365;SDS011;55283;51.466;5.478;2022-10-13T05:53:32;3.45;;;2.90;;
68365;SDS011;55283;51.466;5.478;2022-10-13T05:56:02;3.80;;;2.90;;
68365;SDS011;55283;51.466;5.478;2022-10-13T05:58:33;3.63;;;2.90;;
68365;SDS011;55283;51.466;5.478;2022-10-13T06:01:04;4.00;;;3.00;;
68365;SDS011;55283;51.466;5.478;2022-10-13T06:03:31;4.45;;;3.17;;
68365;SDS011;55283;51.466;5.478;2022-10-13T06:05:56;3.67;;;2.70;;
68365;SDS011;55283;51.466;5.478;2022-10-13T06:08:22;3.13;;;2.60;;
68365;SDS011;55283;51.466;5.478;2022-10-13T06:10:47;4.50;;;3.07;;
68365;SDS011;55283;51.466;5.478;2022-10-13T06:13:12;3.80;;;2.77;;
68365;SDS011;55283;51.466;5.478;2022-10-13T06:15:38;3.83;;;3.00;;
68365;SDS011;55283;51.466;5.478;2022-10-13T06:18:18;3.53;;;2.70;;
68365;SDS011;55283;51.466;5.478;2022-10-13T06:20:43;4.13;;;2.90;;
68365;SDS011;55283;51.466;5.478;2022-10-13T06:23:09;3.53;;;2.78;;
68365;SDS011;55283;51.466;5.478;2022-10-13T06:25:34;2.70;;;2.40;;
68365;SDS011;55283;51.466;5.478;2022-10-13T06:28:00;3.77;;;2.80;;
68365;SDS011;55283;51.466;5.478;2022-10-13T06:30:26;4.23;;;3.10;;
68365;SDS011;55283;51.466;5.478;2022-10-13T06:32:52;5.00;;;2.95;;
68365;SDS011;55283;51.466;5.478;2022-10-13T06:35:20;3.10;;;2.60;;
68365;SDS011;55283;51.466;5.478;2022-10-13T06:37:46;4.33;;;2.73;;
68365;SDS011;55283;51.466;5.478;2022-10-13T06:40:12;3.97;;;2.85;;
68365;SDS011;55283;51.466;5.478;2022-10-13T06:42:38;3.90;;;3.13;;
68365;SDS011;55283;51.466;5.478;2022-10-13T06:45:04;3.37;;;2.47;;
68365;SDS011;55283;51.466;5.478;2022-10-13T06:47:29;4.40;;;2.80;;
68365;SDS011;55283;51.466;5.478;2022-10-13T06:49:55;4.75;;;2.70;;
68365;SDS011;55283;51.466;5.478;2022-10-13T06:52:20;3.90;;;2.90;;
68365;SDS011;55283;51.466;5.478;2022-10-13T06:54:45;4.60;;;3.00;;
68365;SDS011;55283;51.466;5.478;2022-10-13T06:57:11;4.17;;;2.83;;
68365;SDS011;55283;51.466;5.478;2022-10-13T06:59:36;3.90;;;2.93;;
68365;SDS011;55283;51.466;5.478;2022-10-13T07:02:02;4.40;;;2.90;;
68365;SDS011;55283;51.466;5.478;2022-10-13T07:04:27;4.22;;;2.85;;
68365;SDS011;55283;51.466;5.478;2022-10-13T07:06:53;3.77;;;2.70;;
68365;SDS011;55283;51.466;5.478;2022-10-13T07:09:18;3.23;;;2.70;;
68365;SDS011;55283;51.466;5.478;2022-10-13T07:11:46;4.32;;;2.65;;
68365;SDS011;55283;51.466;5.478;2022-10-13T07:14:12;3.97;;;2.80;;
68365;SDS011;55283;51.466;5.478;2022-10-13T07:16:38;4.20;;;2.85;;
68365;SDS011;55283;51.466;5.478;2022-10-13T07:19:03;4.13;;;2.87;;
68365;SDS011;55283;51.466;5.478;2022-10-13T07:21:29;3.77;;;2.80;;
68365;SDS011;55283;51.466;5.478;2022-10-13T07:23:54;4.40;;;2.90;;
68365;SDS011;55283;51.466;5.478;2022-10-13T07:26:20;3.37;;;2.70;;
68365;SDS011;55283;51.466;5.478;2022-10-13T07:28:46;4.43;;;2.58;;
68365;SDS011;55283;51.466;5.478;2022-10-13T07:31:16;5.77;;;2.97;;
68365;SDS011;55283;51.466;5.478;2022-10-13T07:33:43;3.83;;;2.80;;
68365;SDS011;55283;51.466;5.478;2022-10-13T07:36:13;3.90;;;2.92;;
68365;SDS011;55283;51.466;5.478;2022-10-13T07:38:38;4.13;;;2.70;;
68365;SDS011;55283;51.466;5.478;2022-10-13T07:41:05;4.35;;;2.90;;
68365;SDS011;55283;51.466;5.478;2022-10-13T07:43:32;4.63;;;2.60;;
68365;SDS011;55283;51.466;5.478;2022-10-13T07:45:58;3.87;;;2.70;;
68365;SDS011;55283;51.466;5.478;2022-10-13T07:48:25;4.63;;;2.55;;
68365;SDS011;55283;51.466;5.478;2022-10-13T07:50:51;3.72;;;2.63;;
68365;SDS011;55283;51.466;5.478;2022-10-13T07:53:17;4.03;;;2.97;;
68365;SDS011;55283;51.466;5.478;2022-10-13T07:55:42;4.03;;;2.80;;
68365;SDS011;55283;51.466;5.478;2022-10-13T07:58:08;3.53;;;2.90;;
68365;SDS011;55283;51.466;5.478;2022-10-13T08:00:34;4.32;;;2.80;;
68365;SDS011;55283;51.466;5.478;2022-10-13T08:02:59;3.27;;;2.80;;
68365;SDS011;55283;51.466;5.478;2022-10-13T08:05:25;3.75;;;2.80;;
68365;SDS011;55283;51.466;5.478;2022-10-13T08:07:50;3.47;;;2.63;;
68365;SDS011;55283;51.466;5.478;2022-10-13T08:10:15;3.43;;;2.60;;
68365;SDS011;55283;51.466;5.478;2022-10-13T08:12:41;4.67;;;2.53;;
68365;SDS011;55283;51.466;5.478;2022-10-13T08:15:06;3.42;;;2.60;;
68365;SDS011;55283;51.466;5.478;2022-10-13T08:17:32;3.83;;;2.70;;
68365;SDS011;55283;51.466;5.478;2022-10-13T08:19:58;3.72;;;2.35;;
68365;SDS011;55283;51.466;5.478;2022-10-13T08:22:23;3.93;;;2.50;;
68365;SDS011;55283;51.466;5.478;2022-10-13T08:24:49;3.53;;;2.70;;
68365;SDS011;55283;51.466;5.478;2022-10-13T08:27:17;3.47;;;2.95;;
68365;SDS011;55283;51.466;5.478;2022-10-13T08:29:45;4.07;;;2.60;;
68365;SDS011;55283;51.466;5.478;2022-10-13T08:32:10;5.32;;;2.63;;
68365;SDS011;55283;51.466;5.478;2022-10-13T08:34:36;3.77;;;2.80;;
68365;SDS011;55283;51.466;5.478;2022-10-13T08:37:01;3.45;;;2.60;;
68365;SDS011;55283;51.466;5.478;2022-10-13T08:39:27;3.97;;;2.53;;
68365;SDS011;55283;51.466;5.478;2022-10-13T08:41:54;3.85;;;2.75;;
68365;SDS011;55283;51.466;5.478;2022-10-13T08:49:17;3.67;;;2.70;;
68365;SDS011;55283;51.466;5.478;2022-10-13T08:51:43;4.53;;;2.87;;
68365;SDS011;55283;51.466;5.478;2022-10-13T08:54:10;4.43;;;3.00;;
68365;SDS011;55283;51.466;5.478;2022-10-13T08:56:39;6.05;;;2.55;;
68365;SDS011;55283;51.466;5.478;2022-10-13T08:59:04;3.97;;;2.60;;
68365;SDS011;55283;51.466;5.478;2022-10-13T09:01:32;3.42;;;2.70;;
68365;SDS011;55283;51.466;5.478;2022-10-13T09:06:57;3.85;;;2.72;;
68365;SDS011;55283;51.466;5.478;2022-10-13T09:09:28;3.77;;;2.63;;
68365;SDS011;55283;51.466;5.478;2022-10-13T09:11:54;3.37;;;2.70;;
68365;SDS011;55283;51.466;5.478;2022-10-13T09:16:46;5.00;;;2.50;;
68365;SDS011;55283;51.466;5.478;2022-10-13T09:19:14;3.97;;;2.60;;
68365;SDS011;55283;51.466;5.478;2022-10-13T09:21:54;5.67;;;3.00;;
68365;SDS011;55283;51.466;5.478;2022-10-13T09:24:23;4.05;;;2.60;;
68365;SDS011;55283;51.466;5.478;2022-10-13T09:26:51;4.88;;;2.70;;
68365;SDS011;55283;51.466;5.478;2022-10-13T09:29:27;3.45;;;2.58;;
68365;SDS011;55283;51.466;5.478;2022-10-13T09:32:05;3.13;;;2.70;;
68365;SDS011;55283;51.466;5.478;2022-10-13T09:34:42;3.40;;;2.50;;
68365;SDS011;55283;51.466;5.478;2022-10-13T09:37:25;3.73;;;2.60;;
68365;SDS011;55283;51.466;5.478;2022-10-13T09:40:01;3.33;;;2.53;;
68365;SDS011;55283;51.466;5.478;2022-10-13T09:42:37;4.07;;;2.50;;
68365;SDS011;55283;51.466;5.478;2022-10-13T09:45:13;3.75;;;2.90;;
68365;SDS011;55283;51.466;5.478;2022-10-13T09:47:47;3.55;;;2.42;;
68365;SDS011;55283;51.466;5.478;2022-10-13T09:50:18;3.43;;;2.60;;
68365;SDS011;55283;51.466;5.478;2022-10-13T09:52:47;3.72;;;2.78;;
68365;SDS011;55283;51.466;5.478;2022-10-13T09:55:29;4.13;;;2.70;;
68365;SDS011;55283;51.466;5.478;2022-10-13T09:57:59;5.15;;;2.70;;
68365;SDS011;55283;51.466;5.478;2022-10-13T10:00:30;3.77;;;2.80;;
68365;SDS011;55283;51.466;5.478;2022-10-13T10:11:21;3.53;;;2.50;;
68365;SDS011;55283;51.466;5.478;2022-10-13T10:13:52;4.35;;;2.60;;
68365;SDS011;55283;51.466;5.478;2022-10-13T10:16:29;2.70;;;2.33;;
68365;SDS011;55283;51.466;5.478;2022-10-13T10:19:02;3.45;;;2.58;;
68365;SDS011;55283;51.466;5.478;2022-10-13T10:22:03;5.28;;;2.90;;
68365;SDS011;55283;51.466;5.478;2022-10-13T10:28:03;3.00;;;2.50;;
68365;SDS011;55283;51.466;5.478;2022-10-13T10:30:28;3.72;;;2.50;;
68365;SDS011;55283;51.466;5.478;2022-10-13T10:33:17;3.58;;;2.58;;
68365;SDS011;55283;51.466;5.478;2022-10-13T10:46:23;3.70;;;2.40;;
68365;SDS011;55283;51.466;5.478;2022-10-13T10:48:57;4.28;;;2.78;;
68365;SDS011;55283;51.466;5.478;2022-10-13T10:51:29;3.65;;;2.40;;
68365;SDS011;55283;51.466;5.478;2022-10-13T11:06:54;4.38;;;2.47;;
68365;SDS011;55283;51.466;5.478;2022-10-13T11:19:45;4.73;;;2.67;;
68365;SDS011;55283;51.466;5.478;2022-10-13T11:22:13;3.63;;;2.70;;
68365;SDS011;55283;51.466;5.478;2022-10-13T11:32:40;3.67;;;2.60;;
68365;SDS011;55283;51.466;5.478;2022-10-13T11:43:05;2.92;;;2.10;;
68365;SDS011;55283;51.466;5.478;2022-10-13T11:45:40;3.50;;;2.50;;
68365;SDS011;55283;51.466;5.478;2022-10-13T11:56:36;3.47;;;2.23;;
68365;SDS011;55283;51.466;5.478;2022-10-13T11:59:18;3.08;;;2.40;;
68365;SDS011;55283;51.466;5.478;2022-10-13T12:04:35;3.83;;;2.43;;
68365;SDS011;55283;51.466;5.478;2022-10-13T12:07:03;3.05;;;2.50;;
68365;SDS011;55283;51.466;5.478;2022-10-13T12:09:31;3.00;;;2.13;;
68365;SDS011;55283;51.466;5.478;2022-10-13T12:12:04;3.35;;;2.33;;
68365;SDS011;55283;51.466;5.478;2022-10-13T12:14:39;4.33;;;2.40;;
68365;SDS011;55283;51.466;5.478;2022-10-13T12:17:30;3.03;;;2.30;;
68365;SDS011;55283;51.466;5.478;2022-10-13T12:20:00;3.85;;;2.85;;
68365;SDS011;55283;51.466;5.478;2022-10-13T12:22:48;3.30;;;2.40;;
68365;SDS011;55283;51.466;5.478;2022-10-13T12:25:15;3.50;;;2.50;;
68365;SDS011;55283;51.466;5.478;2022-10-13T12:28:00;3.85;;;2.60;;
68365;SDS011;55283;51.466;5.478;2022-10-13T12:32:57;5.25;;;2.50;;
68365;SDS011;55283;51.466;5.478;2022-10-13T12:35:24;3.95;;;2.53;;
68365;SDS011;55283;51.466;5.478;2022-10-13T12:37:52;2.72;;;2.33;;
68365;SDS011;55283;51.466;5.478;2022-10-13T12:40:18;3.50;;;2.50;;
68365;SDS011;55283;51.466;5.478;2022-10-13T12:42:44;2.70;;;2.25;;
68365;SDS011;55283;51.466;5.478;2022-10-13T12:45:15;3.85;;;2.60;;
68365;SDS011;55283;51.466;5.478;2022-10-13T12:53:01;4.47;;;2.60;;
68365;SDS011;55283;51.466;5.478;2022-10-13T12:55:27;2.92;;;2.53;;
68365;SDS011;55283;51.466;5.478;2022-10-13T12:57:53;3.47;;;2.40;;
68365;SDS011;55283;51.466;5.478;2022-10-13T13:02:57;3.78;;;2.63;;
68365;SDS011;55283;51.466;5.478;2022-10-13T13:05:38;3.43;;;2.40;;
68365;SDS011;55283;51.466;5.478;2022-10-13T13:08:21;3.20;;;2.60;;
68365;SDS011;55283;51.466;5.478;2022-10-13T13:11:22;4.03;;;2.58;;
68365;SDS011;55283;51.466;5.478;2022-10-13T13:13:46;2.93;;;2.47;;
68365;SDS011;55283;51.466;5.478;2022-10-13T13:18:39;4.35;;;2.70;;
68365;SDS011;55283;51.466;5.478;2022-10-13T13:21:08;3.43;;;2.53;;
68365;SDS011;55283;51.466;5.478;2022-10-13T13:23:36;3.00;;;2.40;;
68365;SDS011;55283;51.466;5.478;2022-10-13T13:26:18;3.17;;;2.43;;
68365;SDS011;55283;51.466;5.478;2022-10-13T13:28:46;3.05;;;2.50;;
68365;SDS011;55283;51.466;5.478;2022-10-13T13:31:17;3.58;;;2.72;;
68365;SDS011;55283;51.466;5.478;2022-10-13T13:33:45;3.23;;;2.30;;
68365;SDS011;55283;51.466;5.478;2022-10-13T13:38:42;3.67;;;2.55;;
68365;SDS011;55283;51.466;5.478;2022-10-13T13:41:09;4.17;;;2.60;;
68365;SDS011;55283;51.466;5.478;2022-10-13T13:43:35;2.83;;;2.30;;
68365;SDS011;55283;51.466;5.478;2022-10-13T13:46:01;3.30;;;2.50;;
68365;SDS011;55283;51.466;5.478;2022-10-13T13:48:27;4.15;;;2.50;;
68365;SDS011;55283;51.466;5.478;2022-10-13T13:50:53;4.50;;;2.60;;
68365;SDS011;55283;51.466;5.478;2022-10-13T13:53:18;4.63;;;2.50;;
68365;SDS011;55283;51.466;5.478;2022-10-13T13:55:44;3.35;;;2.38;;
68365;SDS011;55283;51.466;5.478;2022-10-13T13:58:11;3.90;;;2.40;;
68365;SDS011;55283;51.466;5.478;2022-10-13T14:00:36;3.27;;;2.20;;
68365;SDS011;55283;51.466;5.478;2022-10-13T14:03:02;3.08;;;2.40;;
68365;SDS011;55283;51.466;5.478;2022-10-13T14:05:28;2.77;;;2.50;;
68365;SDS011;55283;51.466;5.478;2022-10-13T14:07:54;3.80;;;2.47;;
68365;SDS011;55283;51.466;5.478;2022-10-13T14:10:22;3.57;;;2.20;;
68365;SDS011;55283;51.466;5.478;2022-10-13T14:12:47;4.10;;;2.50;;
68365;SDS011;55283;51.466;5.478;2022-10-13T14:15:13;3.57;;;2.53;;
68365;SDS011;55283;51.466;5.478;2022-10-13T14:17:38;2.55;;;2.08;;
68365;SDS011;55283;51.466;5.478;2022-10-13T14:20:04;3.30;;;2.23;;
68365;SDS011;55283;51.466;5.478;2022-10-13T14:22:30;2.60;;;2.20;;
68365;SDS011;55283;51.466;5.478;2022-10-13T14:24:55;3.93;;;2.30;;
68365;SDS011;55283;51.466;5.478;2022-10-13T14:27:20;4.20;;;2.60;;
68365;SDS011;55283;51.466;5.478;2022-10-13T14:29:47;4.20;;;2.57;;
68365;SDS011;55283;51.466;5.478;2022-10-13T14:32:12;2.40;;;2.20;;
68365;SDS011;55283;51.466;5.478;2022-10-13T14:34:37;3.40;;;2.20;;
68365;SDS011;55283;51.466;5.478;2022-10-13T14:37:03;2.93;;;2.30;;
68365;SDS011;55283;51.466;5.478;2022-10-13T14:39:28;2.80;;;2.30;;
68365;SDS011;55283;51.466;5.478;2022-10-13T14:41:54;2.93;;;2.40;;
68365;SDS011;55283;51.466;5.478;2022-10-13T14:44:19;2.67;;;2.33;;
68365;SDS011;55283;51.466;5.478;2022-10-13T14:46:44;4.10;;;2.47;;
68365;SDS011;55283;51.466;5.478;2022-10-13T14:49:10;4.30;;;2.50;;
68365;SDS011;55283;51.466;5.478;2022-10-13T14:51:35;3.80;;;2.35;;
68365;SDS011;55283;51.466;5.478;2022-10-13T14:54:01;4.23;;;2.60;;
68365;SDS011;55283;51.466;5.478;2022-10-13T14:56:28;3.15;;;2.40;;
68365;SDS011;55283;51.466;5.478;2022-10-13T14:58:58;3.40;;;2.43;;
68365;SDS011;55283;51.466;5.478;2022-10-13T15:01:25;3.38;;;2.60;;
68365;SDS011;55283;51.466;5.478;2022-10-13T15:03:51;4.28;;;2.75;;
68365;SDS011;55283;51.466;5.478;2022-10-13T15:06:18;3.80;;;2.30;;
68365;SDS011;55283;51.466;5.478;2022-10-13T15:08:45;3.25;;;2.53;;
68365;SDS011;55283;51.466;5.478;2022-10-13T15:11:11;3.75;;;2.30;;
68365;SDS011;55283;51.466;5.478;2022-10-13T15:13:38;3.57;;;2.40;;
68365;SDS011;55283;51.466;5.478;2022-10-13T15:16:03;4.07;;;2.40;;
68365;SDS011;55283;51.466;5.478;2022-10-13T15:18:30;3.20;;;2.40;;
68365;SDS011;55283;51.466;5.478;2022-10-13T15:20:56;3.92;;;2.50;;
68365;SDS011;55283;51.466;5.478;2022-10-13T15:23:22;2.63;;;2.25;;
68365;SDS011;55283;51.466;5.478;2022-10-13T15:25:49;3.97;;;2.20;;
68365;SDS011;55283;51.466;5.478;2022-10-13T15:28:20;4.03;;;2.40;;
68365;SDS011;55283;51.466;5.478;2022-10-13T15:30:45;3.30;;;2.43;;
68365;SDS011;55283;51.466;5.478;2022-10-13T15:33:10;2.70;;;2.20;;
68365;SDS011;55283;51.466;5.478;2022-10-13T15:35:36;3.60;;;2.50;;
68365;SDS011;55283;51.466;5.478;2022-10-13T15:38:01;3.50;;;2.60;;
68365;SDS011;55283;51.466;5.478;2022-10-13T15:40:27;3.30;;;2.40;;
68365;SDS011;55283;51.466;5.478;2022-10-13T15:42:52;3.90;;;2.70;;
68365;SDS011;55283;51.466;5.478;2022-10-13T15:45:17;2.93;;;2.40;;
68365;SDS011;55283;51.466;5.478;2022-10-13T15:47:43;3.30;;;2.60;;
68365;SDS011;55283;51.466;5.478;2022-10-13T15:50:08;3.33;;;2.57;;
68365;SDS011;55283;51.466;5.478;2022-10-13T15:52:40;4.37;;;2.40;;
68365;SDS011;55283;51.466;5.478;2022-10-13T15:55:06;3.42;;;2.55;;
68365;SDS011;55283;51.466;5.478;2022-10-13T15:57:33;2.97;;;2.30;;
68365;SDS011;55283;51.466;5.478;2022-10-13T15:59:58;3.83;;;2.43;;
68365;SDS011;55283;51.466;5.478;2022-10-13T16:02:23;4.20;;;2.50;;
68365;SDS011;55283;51.466;5.478;2022-10-13T16:04:49;2.87;;;2.17;;
68365;SDS011;55283;51.466;5.478;2022-10-13T16:07:15;3.28;;;2.55;;
68365;SDS011;55283;51.466;5.478;2022-10-13T16:09:42;3.67;;;2.47;;
68365;SDS011;55283;51.466;5.478;2022-10-13T16:12:08;3.70;;;2.37;;
68365;SDS011;55283;51.466;5.478;2022-10-13T16:14:34;4.32;;;2.35;;
68365;SDS011;55283;51.466;5.478;2022-10-13T16:16:59;4.37;;;2.77;;
68365;SDS011;55283;51.466;5.478;2022-10-13T16:19:25;2.90;;;2.30;;
68365;SDS011;55283;51.466;5.478;2022-10-13T16:21:50;2.88;;;2.40;;
68365;SDS011;55283;51.466;5.478;2022-10-13T16:24:15;3.97;;;2.63;;
68365;SDS011;55283;51.466;5.478;2022-10-13T16:26:41;4.20;;;2.53;;
68365;SDS011;55283;51.466;5.478;2022-10-13T16:29:06;3.87;;;2.47;;
68365;SDS011;55283;51.466;5.478;2022-10-13T16:31:32;3.53;;;2.37;;
68365;SDS011;55283;51.466;5.478;2022-10-13T16:33:57;3.67;;;2.57;;
68365;SDS011;55283;51.466;5.478;2022-10-13T16:36:22;3.40;;;2.50;;
68365;SDS011;55283;51.466;5.478;2022-10-13T16:38:50;3.63;;;2.30;;
68365;SDS011;55283;51.466;5.478;2022-10-13T16:41:17;3.58;;;2.58;;
68365;SDS011;55283;51.466;5.478;2022-10-13T16:43:43;3.83;;;2.50;;
68365;SDS011;55283;51.466;5.478;2022-10-13T16:46:10;3.47;;;2.40;;
68365;SDS011;55283;51.466;5.478;2022-10-13T16:48:40;4.15;;;2.50;;
68365;SDS011;55283;51.466;5.478;2022-10-13T16:51:07;3.65;;;2.42;;
68365;SDS011;55283;51.466;5.478;2022-10-13T16:53:35;4.00;;;2.60;;